Willits, California
Current Conditions -  °F | °C
As of 8:45 AM on Sunday 21 Dec 2014 (Local Time) from KUKI Reporting Station
Light Rain Light Rain  
Wind Chill: 54°   Ceiling: 1100
Heat Index: 54°   Visibility: 3mi
Dew Point: 53°   Wind: 0mph
Humidity: 97%   Direction: NA
Pressure: 30.28"   Gusts: NA
Location:  39.4°N, 123.35°W
Report Text: KUKI 211645Z AUTO 00000KT 3SM -RA BR SCT003 BKN011 OVC016 12/12 A3028 RMK AO2 RAB01E14B34 P0000 T01220117
Loading
Personal Weather Stations






























Interactive Weather Map New forecast layout! Learn more

10-Day Weather Forecast

Advertisements
Track Severe Weather on mobile